Time;durP1;ratioP1;P1;durP2;ratioP2;P2;SDS_P1;SDS_P2;PMS_P1;PMS_P2;Temp;Humidity;BMP_temperature;BMP_pressure;BME280_temperature;BME280_humidity;BME280_pressure;Samples;Min_cycle;Max_cycle;Signal;HPM_P1;HPM_P2
2022/04/26 03:37:29;;;;;;;;;36.50;31.50;;;;;11.88;60.19;101328.78;4943236;28;45460;-53
2022/04/26 03:39:55;;;;;;;;;36.25;30.25;;;;;11.87;60.07;101324.44;4942714;28;45338;-48
2022/04/26 03:42:21;;;;;;;;;31.25;29.25;;;;;11.84;60.49;101324.59;4942886;28;45474;-51
2022/04/26 03:44:47;;;;;;;;;40.25;30.75;;;;;11.81;60.17;101330.03;4929177;28;45366;-52
2022/04/26 03:47:12;;;;;;;;;34.50;32.25;;;;;11.81;60.19;101330.91;4942950;28;45343;-49
2022/04/26 03:49:38;;;;;;;;;33.50;28.25;;;;;11.80;60.09;101326.56;4942893;28;45412;-51
2022/04/26 03:52:04;;;;;;;;;41.25;34.00;;;;;11.80;60.48;101328.31;4942786;28;45649;-51
2022/04/26 03:54:29;;;;;;;;;37.25;32.25;;;;;11.78;60.54;101325.75;4942388;28;46924;-51
2022/04/26 03:56:55;;;;;;;;;41.75;32.75;;;;;11.80;60.40;101328.31;4942516;28;45321;-51
2022/04/26 03:59:21;;;;;;;;;43.25;36.25;;;;;11.78;60.39;101327.56;4942640;28;45219;-51
2022/04/26 04:01:47;;;;;;;;;38.00;34.75;;;;;11.79;60.57;101342.44;4942729;28;45569;-49
2022/04/26 04:04:13;;;;;;;;;40.75;35.50;;;;;11.75;60.64;101333.81;4942548;28;45958;-49
2022/04/26 04:06:39;;;;;;;;;42.50;34.50;;;;;11.76;60.54;101343.44;4942529;28;45346;-49
2022/04/26 04:09:04;;;;;;;;;44.25;36.25;;;;;11.77;60.94;101339.91;4942626;28;45417;-50
2022/04/26 04:11:30;;;;;;;;;42.50;34.50;;;;;11.79;60.60;101342.44;4942348;28;45294;-50
2022/04/26 04:13:55;;;;;;;;;48.00;36.75;;;;;11.78;60.78;101346.88;4942394;28;45744;-49
2022/04/26 04:16:21;;;;;;;;;48.25;35.50;;;;;11.79;60.70;101345.09;4942449;28;45568;-50
2022/04/26 04:21:31;;;;;;;;;42.25;33.25;;;;;11.80;60.68;101352.06;4942598;28;45308;-51
2022/04/26 04:23:57;;;;;;;;;38.75;33.00;;;;;11.77;60.54;101355.75;4942441;28;45280;-53
2022/04/26 04:26:22;;;;;;;;;42.25;36.00;;;;;11.74;60.71;101348.81;4942107;28;45316;-50
2022/04/26 04:28:48;;;;;;;;;40.50;34.25;;;;;11.75;61.06;101353.16;4942626;28;45325;-50
2022/04/26 04:31:13;;;;;;;;;38.75;33.00;;;;;11.77;61.13;101358.38;4942354;28;45296;-52
2022/04/26 04:33:40;;;;;;;;;44.50;34.50;;;;;11.76;60.95;101361.91;4942215;28;45660;-52
2022/04/26 04:36:06;;;;;;;;;40.00;35.00;;;;;11.73;60.99;101360.31;4942180;28;45219;-49
2022/04/26 04:38:31;;;;;;;;;39.75;35.50;;;;;11.71;61.04;101366.63;4942484;28;45458;-48
2022/04/26 04:40:57;;;;;;;;;39.25;32.75;;;;;11.69;60.98;101371.09;4941886;28;45358;-53
2022/04/26 04:43:23;;;;;;;;;43.25;37.50;;;;;11.68;61.14;101374.69;4942016;28;45283;-49
2022/04/26 04:45:48;;;;;;;;;41.25;36.00;;;;;11.69;61.16;101379.03;4946743;28;45225;-49
2022/04/26 04:48:14;;;;;;;;;47.75;36.00;;;;;11.67;61.23;101371.19;4942227;28;46412;-52
2022/04/26 04:50:40;;;;;;;;;44.25;36.50;;;;;11.65;60.94;101375.72;4942194;28;45316;-50
2022/04/26 04:53:06;;;;;;;;;43.00;36.50;;;;;11.63;61.11;101382.88;4942027;28;46664;-50
2022/04/26 04:55:32;;;;;;;;;43.50;34.75;;;;;11.64;61.17;101381.91;4943116;28;45401;-52
2022/04/26 04:57:58;;;;;;;;;42.25;33.25;;;;;11.65;61.24;101385.41;4945638;28;45275;-51
2022/04/26 05:00:23;;;;;;;;;41.75;35.50;;;;;11.65;60.99;101388.06;4945457;28;45446;-50
2022/04/26 05:02:49;;;;;;;;;32.00;30.50;;;;;11.64;61.33;101397.75;4928062;28;46123;-49
2022/04/26 05:05:15;;;;;;;;;43.00;37.00;;;;;11.64;61.26;101399.53;4945315;28;45250;-49
2022/04/26 05:07:40;;;;;;;;;51.00;37.75;;;;;11.65;61.14;101398.59;4945382;28;45248;-53
2022/04/26 05:10:06;;;;;;;;;46.25;37.75;;;;;11.65;61.57;101402.09;4945106;28;45436;-49
2022/04/26 05:12:33;;;;;;;;;41.75;31.75;;;;;11.64;61.52;101402.19;4945117;28;45245;-50
2022/04/26 05:14:58;;;;;;;;;38.00;31.50;;;;;11.62;61.94;101409.34;4945033;28;45165;-51
2022/04/26 05:17:26;;;;;;;;;43.00;36.00;;;;;11.65;61.39;101417.09;4945378;28;45414;-51
2022/04/26 05:19:52;;;;;;;;;46.00;37.50;;;;;11.68;61.71;101414.28;4945325;28;45317;-48
2022/04/26 05:22:18;;;;;;;;;52.75;39.50;;;;;11.72;61.26;101418.47;4944886;28;45392;-49
2022/04/26 05:24:58;;;;;;;;;47.75;36.25;;;;;11.73;61.23;101421.00;4944450;28;45316;-52
2022/04/26 05:27:30;;;;;;;;;56.75;40.00;;;;;11.77;61.29;101423.47;4945062;28;45356;-49
2022/04/26 05:29:56;;;;;;;;;39.25;36.50;;;;;11.78;61.09;101425.22;4944980;28;45160;-54
2022/04/26 05:32:24;;;;;;;;;45.00;37.75;;;;;11.79;61.26;101425.13;4918598;28;46206;-51
2022/04/26 05:35:03;;;;;;;;;49.50;40.00;;;;;11.82;61.67;101432.91;4944540;28;45421;-52
2022/04/26 05:37:31;;;;;;;;;48.50;39.75;;;;;11.84;61.14;101438.94;4944598;28;45407;-49
2022/04/26 05:40:02;;;;;;;;;59.00;45.25;;;;;11.86;61.08;101437.09;4944549;28;45245;-50
2022/04/26 05:42:28;;;;;;;;;50.00;40.25;;;;;11.86;61.31;101439.75;4944083;28;45414;-49
2022/04/26 05:44:53;;;;;;;;;52.50;41.25;;;;;11.88;61.17;101442.28;4944522;28;45473;-50
2022/04/26 05:47:19;;;;;;;;;55.25;42.25;;;;;11.90;61.55;101445.69;4939389;28;45466;-48
2022/04/26 05:49:45;;;;;;;;;51.25;40.75;;;;;11.93;61.20;101445.56;4944743;28;45274;-51
2022/04/26 05:52:10;;;;;;;;;53.75;42.00;;;;;11.95;61.21;101452.44;4944425;28;45300;-50
2022/04/26 05:54:35;;;;;;;;;51.75;43.00;;;;;11.97;61.48;101450.56;4944036;28;45307;-48
2022/04/26 05:57:01;;;;;;;;;56.00;44.50;;;;;11.99;60.99;101448.69;4944673;28;45416;-52
2022/04/26 05:59:27;;;;;;;;;57.00;44.25;;;;;12.03;60.80;101454.66;4944298;28;45557;-50
2022/04/26 06:01:52;;;;;;;;;54.25;44.25;;;;;12.08;61.32;101454.41;4944182;28;45241;-53
2022/04/26 06:04:18;;;;;;;;;57.50;44.75;;;;;12.14;60.79;101451.44;4944376;28;45291;-51
2022/04/26 06:06:44;;;;;;;;;60.00;44.50;;;;;12.16;60.92;101453.06;4943427;28;45523;-52
2022/04/26 06:09:13;;;;;;;;;56.00;43.75;;;;;12.24;61.10;101461.44;4944196;28;45500;-52
2022/04/26 06:11:38;;;;;;;;;56.50;44.25;;;;;12.28;60.60;101455.03;4943937;28;45399;-52
2022/04/26 06:14:04;;;;;;;;;55.75;44.00;;;;;12.30;60.82;101458.44;4944218;28;45263;-53
2022/04/26 06:16:29;;;;;;;;;51.50;41.50;;;;;12.29;60.75;101448.81;4944219;28;45322;-51
2022/04/26 06:18:55;;;;;;;;;58.25;46.00;;;;;12.26;60.88;101446.34;4944280;28;45349;-49
2022/04/26 06:21:20;;;;;;;;;59.75;45.25;;;;;12.26;60.61;101454.28;4944079;28;46273;-54
2022/04/26 06:23:46;;;;;;;;;68.00;48.50;;;;;12.25;60.87;101454.38;4942397;28;45327;-50
2022/04/26 06:26:12;;;;;;;;;55.75;44.75;;;;;12.21;60.72;101452.81;4943950;28;45292;-54
2022/04/26 06:28:37;;;;;;;;;59.00;45.50;;;;;12.18;60.70;101467.06;4943942;28;45492;-48
2022/04/26 06:31:03;;;;;;;;;56.75;45.75;;;;;12.21;60.99;101466.88;4926527;28;47070;-52
2022/04/26 06:33:28;;;;;;;;;60.75;45.75;;;;;12.23;61.16;101469.41;4943729;28;45509;-54
2022/04/26 06:35:54;;;;;;;;;60.75;49.00;;;;;12.14;61.15;101470.78;4943943;28;45470;-53
2022/04/26 06:38:22;;;;;;;;;63.75;46.75;;;;;12.12;61.12;101480.56;4943997;28;45353;-54
2022/04/26 06:40:47;;;;;;;;;56.00;45.50;;;;;12.11;61.46;101476.25;4943208;28;45351;-54
2022/04/26 06:43:13;;;;;;;;;63.75;48.50;;;;;12.13;61.61;101479.63;4943942;28;45377;-49
2022/04/26 06:45:39;;;;;;;;;68.25;47.25;;;;;12.13;61.36;101479.63;4948712;28;45380;-49
2022/04/26 06:48:09;;;;;;;;;71.33;51.67;;;;;12.15;61.21;101484.84;4943632;28;45609;-52
2022/04/26 06:50:35;;;;;;;;;65.50;50.00;;;;;12.14;61.34;101485.78;4943348;28;45984;-53
2022/04/26 06:53:00;;;;;;;;;56.75;43.00;;;;;12.13;61.49;101481.44;4943547;28;45340;-52
2022/04/26 06:55:26;;;;;;;;;64.00;50.00;;;;;12.15;61.50;101485.69;4942900;28;45480;-53
2022/04/26 06:57:51;;;;;;;;;69.50;51.25;;;;;12.18;61.56;101482.03;4943700;28;45375;-51
2022/04/26 07:00:17;;;;;;;;;62.75;48.25;;;;;12.18;61.22;101485.53;4943284;28;45487;-50
2022/04/26 07:02:42;;;;;;;;;65.50;51.00;;;;;12.19;61.76;101484.59;4942832;28;45368;-52
2022/04/26 07:05:10;;;;;;;;;61.50;47.50;;;;;12.25;61.87;101489.56;4943307;28;45524;-53
2022/04/26 07:07:36;;;;;;;;;62.25;49.00;;;;;12.33;61.30;101493.56;4943676;28;45421;-51
2022/04/26 07:10:02;;;;;;;;;64.75;49.75;;;;;12.44;61.51;101499.13;4942935;28;45282;-53
2022/04/26 07:12:27;;;;;;;;;60.00;46.75;;;;;12.60;61.36;101496.47;4943216;28;45347;-54
2022/04/26 07:14:53;;;;;;;;;66.25;50.00;;;;;12.72;61.25;101503.72;4934493;28;45422;-51
2022/04/26 07:17:18;;;;;;;;;66.75;48.50;;;;;12.79;60.91;101497.13;4934719;28;45411;-52
2022/04/26 07:19:44;;;;;;;;;63.25;50.00;;;;;12.87;60.77;101500.19;4934504;28;45993;-52
2022/04/26 07:22:09;;;;;;;;;67.75;50.50;;;;;12.89;60.40;101503.63;4935386;28;45575;-50
2022/04/26 07:24:35;;;;;;;;;59.00;47.00;;;;;12.96;60.51;101498.84;4933898;28;45688;-51
2022/04/26 07:27:01;;;;;;;;;64.50;49.75;;;;;13.08;60.42;101504.28;4937086;28;45483;-50
2022/04/26 07:29:27;;;;;;;;;66.50;49.75;;;;;13.19;59.77;101500.16;4942570;28;45403;-52
2022/04/26 07:31:53;;;;;;;;;49.25;43.00;;;;;13.23;59.67;101504.38;4925971;28;45442;-52
2022/04/26 07:34:22;;;;;;;;;69.00;52.00;;;;;13.29;59.91;101511.97;4942396;28;45275;-52
2022/04/26 07:36:59;;;;;;;;;64.50;49.75;;;;;13.39;59.46;101513.13;4937261;28;45528;-53
2022/04/26 07:39:26;;;;;;;;;63.00;48.00;;;;;13.44;59.66;101512.84;4936625;28;45875;-53
2022/04/26 07:41:52;;;;;;;;;64.25;49.25;;;;;13.48;59.09;101522.31;4933927;28;45329;-53
2022/04/26 07:44:18;;;;;;;;;61.75;48.25;;;;;13.45;59.09;101520.69;4936102;28;45424;-50
2022/04/26 07:46:46;;;;;;;;;57.25;46.00;;;;;13.47;58.67;101526.75;4938299;28;45379;-54
2022/04/26 07:49:13;;;;;;;;;57.75;44.75;;;;;13.46;58.31;101529.50;4942354;28;45261;-50
2022/04/26 07:51:39;;;;;;;;;60.50;44.75;;;;;13.43;58.46;101538.47;4933744;28;45282;-53
2022/04/26 07:54:06;;;;;;;;;59.50;45.50;;;;;13.41;58.40;101541.19;4934135;28;45364;-55
2022/04/26 07:56:32;;;;;;;;;62.25;46.50;;;;;13.40;58.55;101546.56;4935900;28;45455;-53
2022/04/26 07:58:59;;;;;;;;;64.75;47.75;;;;;13.42;58.40;101542.03;4933788;28;45347;-54
2022/04/26 08:01:26;;;;;;;;;63.50;46.25;;;;;13.45;58.18;101544.53;4934024;28;45512;-53
2022/04/26 08:03:52;;;;;;;;;56.50;46.00;;;;;13.51;57.94;101549.47;4933562;28;45494;-53
2022/04/26 08:06:18;;;;;;;;;63.25;47.75;;;;;13.56;57.64;101551.81;4933333;28;45427;-53
2022/04/26 08:08:44;;;;;;;;;60.75;47.00;;;;;13.56;57.02;101551.81;4926952;28;46612;-54
2022/04/26 08:11:12;;;;;;;;;60.25;46.50;;;;;13.45;57.29;101555.09;4935461;28;45412;-54
2022/04/26 08:13:42;;;;;;;;;61.75;45.75;;;;;13.40;57.29;101560.66;4933287;28;45517;-51
2022/04/26 08:16:09;;;;;;;;;58.75;45.00;;;;;13.39;57.04;101563.41;4933212;28;45454;-52
2022/04/26 08:18:35;;;;;;;;;56.00;43.75;;;;;13.44;57.25;101561.34;4935457;28;45384;-52
2022/04/26 08:21:02;;;;;;;;;52.50;43.00;;;;;13.51;57.33;101570.63;4933211;28;45499;-59
2022/04/26 08:23:28;;;;;;;;;58.50;46.00;;;;;13.58;57.28;101571.97;4934573;28;45404;-54
2022/04/26 08:28:38;;;;;;;;;63.25;47.00;;;;;13.71;56.76;101571.25;4940853;28;45437;-52
2022/04/26 08:31:05;;;;;;;;;55.75;43.50;;;;;13.68;56.67;101569.66;4943675;28;45756;-50
2022/04/26 08:33:31;;;;;;;;;55.75;43.75;;;;;13.69;56.79;101579.28;4934682;28;45401;-50
2022/04/26 08:35:56;;;;;;;;;59.75;46.25;;;;;13.70;56.84;101583.63;4944330;28;45466;-48
2022/04/26 08:38:22;;;;;;;;;63.50;49.00;;;;;13.74;56.98;101586.94;4945424;28;45267;-48
2022/04/26 08:40:48;;;;;;;;;58.50;46.25;;;;;13.75;56.78;101583.38;4945093;28;45196;-48
2022/04/26 08:43:14;;;;;;;;;58.25;45.50;;;;;13.77;56.95;101592.94;4928216;28;45319;-48
2022/04/26 08:45:40;;;;;;;;;61.25;46.25;;;;;13.73;56.77;101593.19;4945462;28;45545;-50
2022/04/26 08:51:02;;;;;;;;;56.00;45.25;;;;;13.71;56.35;101598.59;4945427;28;45431;-53
2022/04/26 08:53:29;;;;;;;;;61.50;46.25;;;;;13.68;56.65;101598.78;4945532;28;45415;-51
2022/04/26 08:56:00;;;;;;;;;65.75;49.00;;;;;13.67;56.49;101600.56;4944905;28;45608;-52
2022/04/26 08:58:27;;;;;;;;;52.75;42.25;;;;;13.72;56.36;101600.28;4945089;28;45479;-52
2022/04/26 09:01:13;;;;;;;;;60.25;44.25;;;;;13.84;56.45;101599.56;4945001;28;45383;-52
2022/04/26 09:03:41;;;;;;;;;51.75;44.00;;;;;13.92;56.40;101602.63;4945116;28;45320;-49
2022/04/26 09:06:15;;;;;;;;;56.50;44.25;;;;;14.07;55.92;101606.16;4945587;28;45448;-50
2022/04/26 09:08:42;;;;;;;;;60.00;48.00;;;;;14.16;55.99;101610.03;4944901;28;45285;-51
2022/04/26 09:11:28;;;;;;;;;63.50;47.75;;;;;14.18;55.78;101608.16;4944999;28;45442;-50
2022/04/26 09:13:55;;;;;;;;;63.75;48.25;;;;;14.13;55.67;101613.72;4945087;28;45228;-50
2022/04/26 09:16:22;;;;;;;;;57.00;45.25;;;;;14.16;55.44;101615.34;4944953;28;45577;-53
2022/04/26 09:19:05;;;;;;;;;62.00;48.00;;;;;14.14;55.42;101618.09;4944840;28;45340;-48
2022/04/26 09:21:32;;;;;;;;;63.25;48.25;;;;;14.09;55.06;101622.81;4944892;28;45486;-52
2022/04/26 09:24:04;;;;;;;;;59.50;45.25;;;;;14.01;55.57;101632.16;4945211;28;45264;-49
2022/04/26 09:26:37;;;;;;;;;63.00;47.75;;;;;13.95;55.73;101625.41;4944957;28;45674;-48
2022/04/26 09:29:05;;;;;;;;;56.00;44.50;;;;;13.90;55.88;101633.66;4944860;28;45229;-50
2022/04/26 09:31:33;;;;;;;;;58.75;46.25;;;;;13.89;55.60;101637.22;4944747;28;45282;-50
2022/04/26 09:34:04;;;;;;;;;63.25;48.25;;;;;13.87;55.73;101644.41;4944779;28;45300;-50
2022/04/26 09:36:35;;;;;;;;;61.75;47.25;;;;;13.85;55.71;101643.66;4944868;28;45320;-50
2022/04/26 09:39:03;;;;;;;;;61.50;46.00;;;;;13.79;55.77;101643.16;4944388;28;45254;-51
2022/04/26 09:41:29;;;;;;;;;55.50;45.00;;;;;13.79;55.83;101641.34;4942636;28;45244;-53
2022/04/26 09:44:01;;;;;;;;;55.75;41.00;;;;;13.87;56.03;101646.19;4948192;28;45324;-53
2022/04/26 09:46:44;;;;;;;;;56.75;45.50;;;;;13.94;55.92;101647.56;4944019;28;45659;-50
2022/04/26 09:49:11;;;;;;;;;58.75;46.00;;;;;14.00;55.83;101639.25;4944061;28;45353;-53
2022/04/26 09:51:40;;;;;;;;;60.50;43.50;;;;;14.11;55.63;101649.19;4944680;28;45196;-50
2022/04/26 09:54:06;;;;;;;;;61.50;48.50;;;;;14.14;55.56;101649.88;4944032;28;45406;-48
2022/04/26 09:56:33;;;;;;;;;62.50;45.75;;;;;14.18;55.54;101648.75;4944295;28;45553;-52
2022/04/26 09:59:00;;;;;;;;;60.25;44.75;;;;;14.22;55.55;101654.72;4944174;28;46052;-52
2022/04/26 10:01:38;;;;;;;;;62.00;47.50;;;;;14.23;55.48;101644.03;4944507;28;45203;-52
2022/04/26 10:04:06;;;;;;;;;57.75;45.75;;;;;14.27;55.41;101660.59;4944491;28;45292;-49
2022/04/26 10:06:37;;;;;;;;;61.00;45.75;;;;;14.27;55.09;101657.94;4944692;28;45341;-52
2022/04/26 10:09:04;;;;;;;;;54.75;42.00;;;;;14.28;54.68;101667.59;4943761;28;45857;-52
2022/04/26 10:11:30;;;;;;;;;57.25;44.25;;;;;14.32;54.58;101652.38;4944198;28;45392;-52
2022/04/26 10:13:57;;;;;;;;;55.75;42.25;;;;;14.40;54.39;101661.56;4944095;28;45300;-52
2022/04/26 10:16:23;;;;;;;;;55.50;45.00;;;;;14.47;54.37;101649.69;4943959;28;45320;-49
2022/04/26 10:18:50;;;;;;;;;58.50;45.50;;;;;14.58;54.37;101654.31;4944066;28;46200;-50
2022/04/26 10:21:22;;;;;;;;;57.75;44.50;;;;;14.69;54.52;101651.88;4944175;28;45220;-48
2022/04/26 10:23:50;;;;;;;;;55.50;40.75;;;;;14.79;54.07;101653.00;4944606;28;45304;-49
2022/04/26 10:26:22;;;;;;;;;58.25;46.00;;;;;14.89;53.41;101657.72;4943849;28;45415;-50
2022/04/26 10:28:53;;;;;;;;;52.50;40.50;;;;;15.08;52.99;101664.41;4943669;28;45324;-48
2022/04/26 10:31:34;;;;;;;;;57.25;43.75;;;;;15.19;52.90;101658.44;4943754;28;45290;-53
2022/04/26 10:34:00;;;;;;;;;54.75;44.50;;;;;15.45;53.07;101659.41;4944290;28;45348;-51
2022/04/26 10:36:34;;;;;;;;;61.00;46.00;;;;;15.69;52.45;101669.41;4943783;28;45175;-53
2022/04/26 10:39:06;;;;;;;;;57.75;47.50;;;;;15.68;52.24;101665.91;4943784;28;46184;-51
2022/04/26 10:41:37;;;;;;;;;56.50;44.50;;;;;15.66;51.89;101665.16;4943391;28;45407;-51
2022/04/26 10:44:25;;;;;;;;;59.00;46.50;;;;;15.53;51.77;101672.19;4927739;28;45438;-53
2022/04/26 10:46:57;;;;;;;;;57.00;44.75;;;;;15.48;52.15;101672.50;4943403;28;45414;-50
2022/04/26 10:49:26;;;;;;;;;55.00;44.75;;;;;15.45;51.93;101664.72;4943177;28;45363;-52
2022/04/26 10:51:55;;;;;;;;;57.00;45.50;;;;;15.50;52.38;101667.94;4943734;28;45310;-53
2022/04/26 10:54:45;;;;;;;;;55.50;43.50;;;;;15.56;51.52;101669.31;4942724;28;45301;-51
2022/04/26 10:57:11;;;;;;;;;54.00;42.00;;;;;15.47;51.33;101665.47;4938289;28;45365;-51
2022/04/26 10:59:47;;;;;;;;;57.75;45.50;;;;;15.44;51.81;101670.97;4943164;28;45913;-51
2022/04/26 11:02:17;;;;;;;;;53.25;42.25;;;;;15.48;51.57;101666.31;4943097;28;45306;-47
2022/04/26 11:04:43;;;;;;;;;49.75;40.75;;;;;15.46;51.60;101671.72;4943255;28;45262;-49
2022/04/26 11:07:17;;;;;;;;;52.00;42.25;;;;;15.47;51.10;101669.91;4943093;28;45341;-46
2022/04/26 11:09:50;;;;;;;;;56.50;42.75;;;;;15.44;51.42;101664.81;4942817;28;46166;-49
2022/04/26 11:12:21;;;;;;;;;51.75;39.50;;;;;15.45;51.69;101664.72;4942820;28;45447;-47
2022/04/26 11:14:48;;;;;;;;;46.50;38.75;;;;;15.51;51.87;101660.81;4943400;28;45305;-52
2022/04/26 11:17:18;;;;;;;;;53.75;40.00;;;;;15.52;51.57;101667.81;4943493;28;45319;-53
2022/04/26 11:19:53;;;;;;;;;54.25;44.00;;;;;15.44;51.84;101659.50;4942929;28;45381;-52
2022/04/26 11:22:19;;;;;;;;;39.25;34.50;;;;;15.41;51.43;101660.56;4942880;28;45278;-47
2022/04/26 11:30:40;;;;;;;;;52.75;40.50;;;;;15.52;51.72;101665.16;4942522;28;45423;-51
2022/04/26 11:33:08;;;;;;;;;53.75;39.25;;;;;15.63;51.79;101662.69;4942834;28;45192;-48
2022/04/26 11:35:35;;;;;;;;;48.50;37.75;;;;;15.79;51.75;101665.19;4942939;28;45437;-50
2022/04/26 11:38:10;;;;;;;;;47.50;38.25;;;;;15.85;51.25;101665.63;4942507;28;45270;-48
2022/04/26 11:40:38;;;;;;;;;51.50;39.50;;;;;15.84;51.20;101663.94;4942495;28;45376;-51
2022/04/26 11:43:21;;;;;;;;;49.75;38.00;;;;;15.85;51.53;101662.97;4942500;28;45283;-50
2022/04/26 11:45:51;;;;;;;;;48.25;37.75;;;;;15.83;51.12;101662.22;4942676;28;45324;-51
2022/04/26 11:48:19;;;;;;;;;44.25;35.50;;;;;15.81;50.95;101672.13;4942823;28;45165;-51
2022/04/26 11:50:48;;;;;;;;;47.25;36.75;;;;;15.81;51.32;101652.66;4942461;28;45417;-50
2022/04/26 11:53:18;;;;;;;;;48.00;36.75;;;;;15.86;51.17;101666.47;4942571;28;45279;-49
2022/04/26 11:55:46;;;;;;;;;46.25;37.25;;;;;15.94;51.13;101658.00;4942118;28;45175;-49
2022/04/26 11:58:13;;;;;;;;;45.75;36.25;;;;;16.01;50.97;101661.94;4942902;28;45410;-53
2022/04/26 12:01:02;;;;;;;;;43.75;32.75;;;;;16.06;50.49;101665.16;4942524;28;45910;-53
2022/04/26 12:03:48;;;;;;;;;43.50;37.00;;;;;15.99;50.34;101662.06;4942729;28;45312;-49
2022/04/26 12:06:18;;;;;;;;;44.50;37.00;;;;;15.96;50.58;101664.94;4942081;28;45305;-52
2022/04/26 12:08:46;;;;;;;;;39.50;34.00;;;;;15.95;50.66;101670.31;4942725;28;45337;-50
2022/04/26 12:11:13;;;;;;;;;34.00;30.25;;;;;15.92;50.59;101671.41;4942352;28;45276;-51
2022/04/26 12:13:39;;;;;;;;;41.75;35.50;;;;;15.94;50.36;101673.94;4942475;28;45232;-51
2022/04/26 12:16:22;;;;;;;;;47.25;38.75;;;;;16.13;50.27;101667.31;4942842;28;45282;-51
2022/04/26 12:18:56;;;;;;;;;38.00;32.25;;;;;16.21;50.07;101671.25;4942573;28;45238;-48
2022/04/26 12:21:26;;;;;;;;;39.25;33.50;;;;;16.26;49.88;101669.94;4942495;28;45487;-51
2022/04/26 12:24:15;;;;;;;;;41.50;34.50;;;;;16.30;50.25;101665.28;4942095;28;45342;-50
2022/04/26 12:27:13;;;;;;;;;43.75;34.50;;;;;16.36;49.39;101668.41;4942130;28;45373;-53
2022/04/26 12:29:47;;;;;;;;;32.25;30.50;;;;;16.44;49.30;101676.69;4920107;28;45258;-52
2022/04/26 12:32:28;;;;;;;;;40.00;32.00;;;;;16.42;48.96;101665.28;4942079;28;46055;-51
2022/04/26 12:34:56;;;;;;;;;41.25;34.25;;;;;16.50;49.27;101666.56;4942178;28;45348;-51
2022/04/26 12:37:27;;;;;;;;;36.25;32.00;;;;;16.70;49.29;101666.06;4942386;28;45277;-53
2022/04/26 12:40:17;;;;;;;;;36.75;32.00;;;;;17.00;48.62;101655.91;4941706;28;45395;-51
2022/04/26 12:42:45;;;;;;;;;28.25;28.25;;;;;17.17;47.63;101654.69;4922842;28;45324;-49
2022/04/26 12:45:21;;;;;;;;;37.25;29.00;;;;;17.25;47.09;101647.00;4926402;28;45440;-48
2022/04/26 12:50:52;;;;;;;;;35.50;31.00;;;;;17.19;46.98;101639.47;4922935;28;45379;-52
2022/04/26 12:53:32;;;;;;;;;33.50;28.25;;;;;17.09;46.91;101634.91;4922911;28;45429;-52
2022/04/26 12:56:08;;;;;;;;;35.25;31.00;;;;;16.96;47.52;101643.78;4922306;28;45439;-52
2022/04/26 12:58:37;;;;;;;;;33.50;30.25;;;;;16.90;47.09;101646.88;4923063;28;45253;-51
2022/04/26 13:01:04;;;;;;;;;36.50;31.50;;;;;16.85;47.46;101645.53;4922963;28;45622;-51
2022/04/26 13:03:30;;;;;;;;;30.00;26.00;;;;;17.05;47.32;101636.94;4923021;28;46093;-50
2022/04/26 13:06:04;;;;;;;;;30.00;30.00;;;;;17.24;46.76;101632.00;4922739;28;45246;-50
2022/04/26 13:08:30;;;;;;;;;29.75;27.50;;;;;17.24;46.79;101642.66;4922843;28;45264;-50
2022/04/26 13:10:55;;;;;;;;;34.50;31.00;;;;;17.19;47.03;101635.94;4922764;28;45191;-49
2022/04/26 13:13:21;;;;;;;;;31.25;27.50;;;;;17.21;47.14;101632.19;4922545;28;45643;-48
2022/04/26 13:15:46;;;;;;;;;34.75;29.25;;;;;17.32;46.77;101633.25;4923142;28;45355;-53
2022/04/26 13:18:15;;;;;;;;;31.50;29.75;;;;;17.44;46.92;101632.31;4925874;28;45216;-48
2022/04/26 13:20:43;;;;;;;;;31.00;30.50;;;;;17.47;46.49;101632.13;4926047;28;45347;-48
2022/04/26 13:23:09;;;;;;;;;30.25;25.50;;;;;17.45;46.41;101637.53;4925742;28;45485;-49
2022/04/26 13:25:35;;;;;;;;;36.00;30.50;;;;;17.45;46.33;101631.34;4925547;28;45391;-50
2022/04/26 13:28:03;;;;;;;;;36.00;29.50;;;;;17.45;46.37;101634.03;4925735;28;45309;-50
2022/04/26 13:30:28;;;;;;;;;36.75;30.25;;;;;17.47;46.54;101632.97;4925876;28;45455;-54
2022/04/26 13:32:55;;;;;;;;;36.00;30.50;;;;;17.47;46.09;101629.47;4925579;28;45432;-52
2022/04/26 13:35:21;;;;;;;;;27.50;26.00;;;;;17.42;46.10;101626.28;4925674;28;45295;-53
2022/04/26 13:37:47;;;;;;;;;32.25;28.00;;;;;17.40;46.79;101623.72;4925567;28;45368;-54
2022/04/26 13:40:12;;;;;;;;;24.25;24.00;;;;;17.40;46.44;101621.06;4926265;28;45239;-53
2022/04/26 13:42:39;;;;;;;;;29.00;25.75;;;;;17.40;45.86;101620.22;4927351;28;46457;-52
2022/04/26 13:45:06;;;;;;;;;25.00;22.25;;;;;17.42;45.77;101620.94;4944614;28;45372;-53
2022/04/26 13:47:34;;;;;;;;;26.00;24.25;;;;;17.42;45.59;101618.28;4944684;28;45308;-51
2022/04/26 13:50:00;;;;;;;;;28.25;26.25;;;;;17.63;45.51;101619.34;4944788;28;45234;-51
2022/04/26 13:52:25;;;;;;;;;25.25;23.25;;;;;17.67;45.22;101614.63;4944315;28;45527;-53
2022/04/26 13:54:51;;;;;;;;;25.25;22.25;;;;;17.65;45.21;101605.91;4944227;28;45338;-51
2022/04/26 13:57:17;;;;;;;;;29.75;27.00;;;;;17.62;45.30;101612.34;4944524;28;45323;-52
2022/04/26 13:59:44;;;;;;;;;24.50;24.00;;;;;17.57;44.98;101606.50;4944726;28;45304;-49
2022/04/26 14:02:10;;;;;;;;;28.75;26.25;;;;;17.53;45.15;101607.66;4944179;28;45317;-53
2022/04/26 14:04:36;;;;;;;;;26.00;25.00;;;;;17.52;45.06;101601.50;4944626;28;45247;-52
2022/04/26 14:07:02;;;;;;;;;30.75;29.50;;;;;17.53;45.01;101597.84;4944399;28;45274;-50
2022/04/26 14:09:28;;;;;;;;;25.75;23.50;;;;;17.52;45.74;101608.63;4944231;28;45228;-51
2022/04/26 14:11:55;;;;;;;;;29.25;27.00;;;;;17.54;45.43;101602.25;4926436;28;47756;-52
2022/04/26 14:22:34;;;;;;;;;25.25;24.25;;;;;17.35;45.95;101596.56;4944175;28;45373;-50
2022/04/26 14:25:08;;;;;;;;;31.75;27.75;;;;;17.42;45.58;101596.97;4943871;28;45230;-51
2022/04/26 14:27:34;;;;;;;;;24.25;23.50;;;;;17.48;45.67;101594.72;4943458;28;45240;-50
2022/04/26 14:30:00;;;;;;;;;22.75;22.75;;;;;17.72;45.45;101596.53;4943996;28;45175;-49
2022/04/26 14:32:26;;;;;;;;;25.00;22.50;;;;;17.89;45.28;101597.91;4943852;28;45365;-52
2022/04/26 14:34:51;;;;;;;;;24.75;20.75;;;;;17.92;44.66;101595.00;4943907;28;45266;-49
2022/04/26 14:37:17;;;;;;;;;22.75;21.50;;;;;17.84;44.31;101599.09;4944207;28;45295;-52
2022/04/26 14:39:43;;;;;;;;;22.00;20.75;;;;;17.71;44.17;101597.50;4943564;28;45581;-52
2022/04/26 14:42:09;;;;;;;;;24.50;20.25;;;;;17.74;44.28;101592.78;4943473;28;45972;-49
2022/04/26 14:44:36;;;;;;;;;20.00;18.25;;;;;17.71;44.37;101595.69;4943592;28;45267;-53
2022/04/26 14:47:02;;;;;;;;;19.50;18.00;;;;;17.76;44.46;101597.97;4944054;28;45225;-51
2022/04/26 14:49:29;;;;;;;;;22.75;20.00;;;;;17.90;44.32;101591.59;4943661;28;45484;-49
2022/04/26 14:51:54;;;;;;;;;23.50;20.25;;;;;18.00;44.42;101592.59;4943738;28;46064;-50
2022/04/26 14:54:21;;;;;;;;;21.25;19.25;;;;;18.12;43.69;101597.00;4943471;28;45192;-50
2022/04/26 14:56:47;;;;;;;;;15.00;15.00;;;;;18.15;43.37;101591.41;4943644;28;45293;-51
2022/04/26 14:59:13;;;;;;;;;17.50;17.25;;;;;18.11;42.98;101593.47;4943659;28;45347;-49
2022/04/26 15:01:40;;;;;;;;;21.25;16.25;;;;;18.07;42.71;101592.00;4943643;28;45359;-51
2022/04/26 15:04:06;;;;;;;;;17.75;13.25;;;;;18.09;42.33;101592.75;4943566;28;45179;-51
2022/04/26 15:06:31;;;;;;;;;17.00;15.75;;;;;18.19;42.02;101598.22;4943802;28;45320;-50
2022/04/26 15:11:43;;;;;;;;;17.25;15.50;;;;;18.22;41.94;101597.13;4943278;28;45314;-52
2022/04/26 15:16:53;;;;;;;;;15.25;15.25;;;;;18.25;42.18;101594.22;4943588;28;45299;-53
2022/04/26 15:19:18;;;;;;;;;17.00;14.75;;;;;18.33;42.69;101594.47;4926268;28;45344;-53
2022/04/26 15:21:43;;;;;;;;;13.25;13.25;;;;;18.38;41.42;101587.78;4943262;28;46053;-52